Time;durP1;ratioP1;P1;durP2;ratioP2;P2;SDS_P1;SDS_P2;PMS_P1;PMS_P2;Temp;Humidity;BMP_temperature;BMP_pressure;BME280_temperature;BME280_humidity;BME280_pressure;Samples;Min_cycle;Max_cycle;Signal;HPM_P1;HPM_P2
2022/05/08 00:00:17;;;;;;;;;;;;;;;;;;5116202;27;28390;-85
2022/05/08 00:02:42;;;;;;;;;;;;;;;;;;5115820;27;29532;-83
2022/05/08 00:05:07;;;;;;;;;;;;;;;;;;5115944;27;28633;-85
2022/05/08 00:07:32;;;;;;;;;;;;;;;;;;5115375;27;28347;-85
2022/05/08 00:09:57;;;;;;;;;;;;;;;;;;5116602;27;28391;-86
2022/05/08 00:12:22;;;;;;;;;;;;;;;;;;5119410;27;28323;-83
2022/05/08 00:14:47;;;;;;;;;;;;;;;;;;5119286;27;28396;-85
2022/05/08 00:17:13;;;;;;;;;;;;;;;;;;5119367;27;28343;-85
2022/05/08 00:19:39;;;;;;;;;;;;;;;;;;5119457;27;28419;-85
2022/05/08 00:22:04;;;;;;;;;;;;;;;;;;5119622;27;29317;-85
2022/05/08 00:24:29;;;;;;;;;;;;;;;;;;5119186;27;28320;-85
2022/05/08 00:26:54;;;;;;;;;;;;;;;;;;5119445;27;28275;-85
2022/05/08 00:29:19;;;;;;;;;;;;;;;;;;5119475;27;28224;-86
2022/05/08 00:31:44;;;;;;;;;;;;;;;;;;5119197;27;29357;-85
2022/05/08 00:34:09;;;;;;;;;;;;;;;;;;5119485;27;28438;-86
2022/05/08 00:36:34;;;;;;;;;;;;;;;;;;5119368;27;28395;-86
2022/05/08 00:38:59;;;;;;;;;;;;;;;;;;5119345;27;28371;-86
2022/05/08 00:41:24;;;;;;;;;;;;;;;;;;5119023;27;28606;-86
2022/05/08 00:43:50;;;;;;;;;;;;;;;;;;5134770;27;28333;-85
2022/05/08 00:46:16;;;;;;;;;;;;;;;;;;5134961;27;28351;-86
2022/05/08 00:48:41;;;;;;;;;;;;;;;;;;5118977;27;28318;-85
2022/05/08 00:51:06;;;;;;;;;;;;;;;;;;5118896;27;28421;-85
2022/05/08 00:53:31;;;;;;;;;;;;;;;;;;5119007;27;28244;-85
2022/05/08 00:55:57;;;;;;;;;;;;;;;;;;5119048;27;28478;-85
2022/05/08 00:58:22;;;;;;;;;;;;;;;;;;5126461;27;28351;-85
2022/05/08 01:00:47;;;;;;;;;;;;;;;;;;5138718;27;29328;-85
2022/05/08 01:03:12;;;;;;;;;;;;;;;;;;5139297;27;28331;-86
2022/05/08 01:05:37;;;;;;;;;;;;;;;;;;5139247;27;28362;-85
2022/05/08 01:08:02;;;;;;;;;;;;;;;;;;5139706;27;28306;-85
2022/05/08 01:10:27;;;;;;;;;;;;;;;;;;5139040;27;29373;-85
2022/05/08 01:12:53;;;;;;;;;;;;;;;;;;5120623;27;29150;-85
2022/05/08 01:15:19;;;;;;;;;;;;;;;;;;5139503;27;28377;-86
2022/05/08 01:17:44;;;;;;;;;;;;;;;;;;5139172;27;28436;-85
2022/05/08 01:20:09;;;;;;;;;;;;;;;;;;5139837;27;28428;-92
2022/05/08 01:22:34;;;;;;;;;;;;;;;;;;5120003;27;28822;-87
2022/05/08 01:24:59;;;;;;;;;;;;;;;;;;5138899;27;28373;-84
2022/05/08 01:27:24;;;;;;;;;;;;;;;;;;5139401;27;28921;-83
2022/05/08 01:29:49;;;;;;;;;;;;;;;;;;5138828;27;28415;-84
2022/05/08 01:32:14;;;;;;;;;;;;;;;;;;5139012;27;28479;-87
2022/05/08 01:34:39;;;;;;;;;;;;;;;;;;5139047;27;28320;-87
2022/05/08 01:37:05;;;;;;;;;;;;;;;;;;5138978;27;28524;-87
2022/05/08 01:39:30;;;;;;;;;;;;;;;;;;5139057;27;28338;-87
2022/05/08 01:41:55;;;;;;;;;;;;;;;;;;5120482;27;28398;-87
2022/05/08 01:44:23;;;;;;;;;;;;;;;;;;5120365;27;28343;-87
2022/05/08 01:46:48;;;;;;;;;;;;;;;;;;5139346;27;28442;-88
2022/05/08 01:49:13;;;;;;;;;;;;;;;;;;5139463;27;29704;-88
2022/05/08 01:51:38;;;;;;;;;;;;;;;;;;5120497;27;28434;-87
2022/05/08 01:54:05;;;;;;;;;;;;;;;;;;5138955;27;28302;-88
2022/05/08 01:56:30;;;;;;;;;;;;;;;;;;5139126;27;28345;-87
2022/05/08 01:58:55;;;;;;;;;;;;;;;;;;5138796;27;28498;-87
2022/05/08 02:01:21;;;;;;;;;;;;;;;;;;5139046;27;28377;-87
2022/05/08 02:03:46;;;;;;;;;;;;;;;;;;5139165;27;28329;-87
2022/05/08 02:06:11;;;;;;;;;;;;;;;;;;5120199;27;28545;-87
2022/05/08 02:08:36;;;;;;;;;;;;;;;;;;5119934;27;29812;-87
2022/05/08 02:11:03;;;;;;;;;;;;;;;;;;5138957;27;28274;-87
2022/05/08 02:13:28;;;;;;;;;;;;;;;;;;5138810;27;28535;-86
2022/05/08 02:15:53;;;;;;;;;;;;;;;;;;5139211;27;28451;-87
2022/05/08 02:18:18;;;;;;;;;;;;;;;;;;5138864;27;28460;-87
2022/05/08 02:20:43;;;;;;;;;;;;;;;;;;5120020;27;28453;-87
2022/05/08 02:23:08;;;;;;;;;;;;;;;;;;5138832;27;28559;-87
2022/05/08 02:25:33;;;;;;;;;;;;;;;;;;5139017;27;28377;-87
2022/05/08 02:27:58;;;;;;;;;;;;;;;;;;5138696;27;28602;-86
2022/05/08 02:30:25;;;;;;;;;;;;;;;;;;5138258;27;28467;-87
2022/05/08 02:32:51;;;;;;;;;;;;;;;;;;5119207;27;28338;-87
2022/05/08 02:35:17;;;;;;;;;;;;;;;;;;5138692;27;28492;-87
2022/05/08 02:37:42;;;;;;;;;;;;;;;;;;5138600;27;28461;-87
2022/05/08 02:40:08;;;;;;;;;;;;;;;;;;5119731;27;29501;-86
2022/05/08 02:42:33;;;;;;;;;;;;;;;;;;5138570;27;28363;-87
2022/05/08 02:44:58;;;;;;;;;;;;;;;;;;5138830;27;28217;-87
2022/05/08 02:47:23;;;;;;;;;;;;;;;;;;5138475;27;28574;-86
2022/05/08 02:49:49;;;;;;;;;;;;;;;;;;5138523;27;28280;-86
2022/05/08 02:52:14;;;;;;;;;;;;;;;;;;5138483;27;28339;-86
2022/05/08 02:54:39;;;;;;;;;;;;;;;;;;5138504;27;28428;-86
2022/05/08 02:59:48;;;;;;;;;;;;;;;;;;5137756;27;28244;-86
2022/05/08 03:02:13;;;;;;;;;;;;;;;;;;5138051;27;28248;-87
2022/05/08 03:04:39;;;;;;;;;;;;;;;;;;5138008;27;28362;-87
2022/05/08 03:07:04;;;;;;;;;;;;;;;;;;5137896;27;28426;-86
2022/05/08 03:09:29;;;;;;;;;;;;;;;;;;5137802;27;28521;-86
2022/05/08 03:11:54;;;;;;;;;;;;;;;;;;5138269;27;28629;-86
2022/05/08 03:14:20;;;;;;;;;;;;;;;;;;5137874;27;28229;-86
2022/05/08 03:16:45;;;;;;;;;;;;;;;;;;5137745;27;28436;-87
2022/05/08 03:19:11;;;;;;;;;;;;;;;;;;5137700;27;28307;-87
2022/05/08 03:21:37;;;;;;;;;;;;;;;;;;5137935;27;28251;-86
2022/05/08 03:24:03;;;;;;;;;;;;;;;;;;5138036;27;28428;-86
2022/05/08 03:26:31;;;;;;;;;;;;;;;;;;5119001;27;28504;-86
2022/05/08 03:28:56;;;;;;;;;;;;;;;;;;5137750;27;28393;-86
2022/05/08 03:31:21;;;;;;;;;;;;;;;;;;5137737;27;28452;-86
2022/05/08 03:33:46;;;;;;;;;;;;;;;;;;5137909;27;28384;-87
2022/05/08 03:36:11;;;;;;;;;;;;;;;;;;5137620;27;29200;-86
2022/05/08 03:38:36;;;;;;;;;;;;;;;;;;5118898;27;28475;-86
2022/05/08 03:41:02;;;;;;;;;;;;;;;;;;5137666;27;28390;-86
2022/05/08 03:43:28;;;;;;;;;;;;;;;;;;5137113;27;28461;-86
2022/05/08 03:45:53;;;;;;;;;;;;;;;;;;5137005;27;28515;-87
2022/05/08 03:48:18;;;;;;;;;;;;;;;;;;5118705;27;28387;-86
2022/05/08 03:50:43;;;;;;;;;;;;;;;;;;5137312;27;28247;-86
2022/05/08 03:53:09;;;;;;;;;;;;;;;;;;5137595;27;28286;-86
2022/05/08 03:55:34;;;;;;;;;;;;;;;;;;5118587;27;29956;-87
2022/05/08 03:57:59;;;;;;;;;;;;;;;;;;5136956;27;28782;-85
2022/05/08 04:00:24;;;;;;;;;;;;;;;;;;5136932;27;28239;-86
2022/05/08 04:02:49;;;;;;;;;;;;;;;;;;5137182;27;28549;-86
2022/05/08 04:05:14;;;;;;;;;;;;;;;;;;5137115;27;28516;-86
2022/05/08 04:07:39;;;;;;;;;;;;;;;;;;5136996;27;28799;-86
2022/05/08 04:10:05;;;;;;;;;;;;;;;;;;5137104;27;28248;-86
2022/05/08 04:12:30;;;;;;;;;;;;;;;;;;5136894;27;28361;-86
2022/05/08 04:14:55;;;;;;;;;;;;;;;;;;5136489;27;28512;-86
2022/05/08 04:17:20;;;;;;;;;;;;;;;;;;5137155;27;28254;-87
2022/05/08 04:19:46;;;;;;;;;;;;;;;;;;5136841;27;28358;-86
2022/05/08 04:24:57;;;;;;;;;;;;;;;;;;5136745;27;28716;-86
2022/05/08 04:27:22;;;;;;;;;;;;;;;;;;5136506;27;27928;-85
2022/05/08 04:29:47;;;;;;;;;;;;;;;;;;5136705;27;27830;-86
2022/05/08 04:32:12;;;;;;;;;;;;;;;;;;5136829;27;28396;-86
2022/05/08 04:34:37;;;;;;;;;;;;;;;;;;5136779;27;28443;-86
2022/05/08 04:37:03;;;;;;;;;;;;;;;;;;5136967;27;28247;-86
2022/05/08 04:39:28;;;;;;;;;;;;;;;;;;5136618;27;28307;-86
2022/05/08 04:41:53;;;;;;;;;;;;;;;;;;5136668;27;28316;-86
2022/05/08 04:44:18;;;;;;;;;;;;;;;;;;5117777;27;29710;-85
2022/05/08 04:46:43;;;;;;;;;;;;;;;;;;5136008;27;28538;-85
2022/05/08 04:49:08;;;;;;;;;;;;;;;;;;5136461;27;28510;-85
2022/05/08 04:51:33;;;;;;;;;;;;;;;;;;5136502;27;28382;-85
2022/05/08 04:53:58;;;;;;;;;;;;;;;;;;5136529;27;28436;-86
2022/05/08 04:56:24;;;;;;;;;;;;;;;;;;5137391;27;28388;-86
2022/05/08 04:58:49;;;;;;;;;;;;;;;;;;5121287;27;28360;-86
2022/05/08 05:01:14;;;;;;;;;;;;;;;;;;5140015;27;28393;-86
2022/05/08 05:03:39;;;;;;;;;;;;;;;;;;5139597;27;28319;-86
2022/05/08 05:06:04;;;;;;;;;;;;;;;;;;5139971;27;28335;-86
2022/05/08 05:08:29;;;;;;;;;;;;;;;;;;5139736;27;28378;-86
2022/05/08 05:10:54;;;;;;;;;;;;;;;;;;5139875;27;28515;-85
2022/05/08 05:13:19;;;;;;;;;;;;;;;;;;5139749;27;28431;-85
2022/05/08 05:15:45;;;;;;;;;;;;;;;;;;5139421;27;28526;-86
2022/05/08 05:18:10;;;;;;;;;;;;;;;;;;5139792;27;28300;-86
2022/05/08 05:20:35;;;;;;;;;;;;;;;;;;5139671;27;28448;-86
2022/05/08 05:23:03;;;;;;;;;;;;;;;;;;5139744;27;28666;-86
2022/05/08 05:25:28;;;;;;;;;;;;;;;;;;5139730;27;28515;-86
2022/05/08 05:27:53;;;;;;;;;;;;;;;;;;5139644;27;28204;-86
2022/05/08 05:30:18;;;;;;;;;;;;;;;;;;5120878;27;28565;-86
2022/05/08 05:32:43;;;;;;;;;;;;;;;;;;5139183;27;28460;-86
2022/05/08 05:35:08;;;;;;;;;;;;;;;;;;5139334;27;28303;-86
2022/05/08 05:37:34;;;;;;;;;;;;;;;;;;5139509;27;28357;-85
2022/05/08 05:39:59;;;;;;;;;;;;;;;;;;5139343;27;28338;-85
2022/05/08 05:42:24;;;;;;;;;;;;;;;;;;5139314;27;28327;-87
2022/05/08 05:44:49;;;;;;;;;;;;;;;;;;5139193;27;28467;-87
2022/05/08 05:49:58;;;;;;;;;;;;;;;;;;5139365;27;28507;-86
2022/05/08 05:52:23;;;;;;;;;;;;;;;;;;5139038;27;28485;-85
2022/05/08 05:54:48;;;;;;;;;;;;;;;;;;5139347;27;28304;-87
2022/05/08 05:57:13;;;;;;;;;;;;;;;;;;5139350;27;28445;-87
2022/05/08 05:59:38;;;;;;;;;;;;;;;;;;5120229;27;28359;-86
2022/05/08 06:02:04;;;;;;;;;;;;;;;;;;5118170;27;28369;-86
2022/05/08 06:04:29;;;;;;;;;;;;;;;;;;5118352;27;28330;-86
2022/05/08 06:06:54;;;;;;;;;;;;;;;;;;5118347;27;28247;-86
2022/05/08 06:09:19;;;;;;;;;;;;;;;;;;5134293;27;28547;-87
2022/05/08 06:11:44;;;;;;;;;;;;;;;;;;5118065;27;28579;-87
2022/05/08 06:14:09;;;;;;;;;;;;;;;;;;5134212;27;28517;-86
2022/05/08 06:16:35;;;;;;;;;;;;;;;;;;5118216;27;28254;-87
2022/05/08 06:19:00;;;;;;;;;;;;;;;;;;5118669;27;28311;-87
2022/05/08 06:21:25;;;;;;;;;;;;;;;;;;5118021;27;28374;-87
2022/05/08 06:23:52;;;;;;;;;;;;;;;;;;5117992;27;28311;-87
2022/05/08 06:26:17;;;;;;;;;;;;;;;;;;5118294;27;28437;-87
2022/05/08 06:28:42;;;;;;;;;;;;;;;;;;5118113;27;28377;-87
2022/05/08 06:31:07;;;;;;;;;;;;;;;;;;5117865;27;28878;-87
2022/05/08 06:33:33;;;;;;;;;;;;;;;;;;5118543;27;28545;-86
2022/05/08 06:35:58;;;;;;;;;;;;;;;;;;5118084;27;28398;-87
2022/05/08 06:38:23;;;;;;;;;;;;;;;;;;5118099;27;28372;-86
2022/05/08 06:40:48;;;;;;;;;;;;;;;;;;5117996;27;28542;-87
2022/05/08 06:43:13;;;;;;;;;;;;;;;;;;5117787;27;28464;-86
2022/05/08 06:45:38;;;;;;;;;;;;;;;;;;5117795;27;28442;-87
2022/05/08 06:48:03;;;;;;;;;;;;;;;;;;5117918;27;28499;-86
2022/05/08 06:50:33;;;;;;;;;;;;;;;;;;5117479;27;28506;-86
2022/05/08 06:52:58;;;;;;;;;;;;;;;;;;5117802;27;28464;-87
2022/05/08 06:55:23;;;;;;;;;;;;;;;;;;5117679;27;28294;-87
2022/05/08 06:57:48;;;;;;;;;;;;;;;;;;5120303;27;28277;-87
2022/05/08 07:02:57;;;;;;;;;;;;;;;;;;5138005;27;28342;-87
2022/05/08 07:05:24;;;;;;;;;;;;;;;;;;5154265;27;28348;-87
2022/05/08 07:07:49;;;;;;;;;;;;;;;;;;5138192;27;28443;-87
2022/05/08 07:10:14;;;;;;;;;;;;;;;;;;5138279;27;29558;-87
2022/05/08 07:12:39;;;;;;;;;;;;;;;;;;5137930;27;28334;-87
2022/05/08 07:15:04;;;;;;;;;;;;;;;;;;5153865;27;27761;-87
2022/05/08 07:17:29;;;;;;;;;;;;;;;;;;5138516;27;28352;-87
2022/05/08 07:19:55;;;;;;;;;;;;;;;;;;5136989;27;28691;-87
2022/05/08 07:22:20;;;;;;;;;;;;;;;;;;5138478;27;28437;-87
2022/05/08 07:24:45;;;;;;;;;;;;;;;;;;5138394;27;28360;-87
2022/05/08 07:27:11;;;;;;;;;;;;;;;;;;5138356;27;28326;-88
2022/05/08 07:29:36;;;;;;;;;;;;;;;;;;5138060;27;28697;-87
2022/05/08 07:32:01;;;;;;;;;;;;;;;;;;5154108;27;28371;-87
2022/05/08 07:37:10;;;;;;;;;;;;;;;;;;5138357;27;28323;-87
2022/05/08 07:39:35;;;;;;;;;;;;;;;;;;5137721;27;28581;-88
2022/05/08 07:42:00;;;;;;;;;;;;;;;;;;5138087;27;28300;-87
2022/05/08 07:44:25;;;;;;;;;;;;;;;;;;5153790;27;28406;-88
2022/05/08 07:46:51;;;;;;;;;;;;;;;;;;5137628;27;28475;-87
2022/05/08 07:49:16;;;;;;;;;;;;;;;;;;5138023;27;28535;-87
2022/05/08 07:51:41;;;;;;;;;;;;;;;;;;5137300;27;28305;-87
2022/05/08 07:54:06;;;;;;;;;;;;;;;;;;5137709;27;28340;-87
2022/05/08 07:56:31;;;;;;;;;;;;;;;;;;5137766;27;28230;-88
2022/05/08 07:58:56;;;;;;;;;;;;;;;;;;5137575;27;28338;-88
2022/05/08 08:01:21;;;;;;;;;;;;;;;;;;5137186;27;28395;-87
2022/05/08 08:03:46;;;;;;;;;;;;;;;;;;5153326;27;28564;-86
2022/05/08 08:06:12;;;;;;;;;;;;;;;;;;5137790;27;28353;-87
2022/05/08 08:08:37;;;;;;;;;;;;;;;;;;5137331;27;29317;-86
2022/05/08 08:11:04;;;;;;;;;;;;;;;;;;5153537;27;28481;-88
2022/05/08 08:13:29;;;;;;;;;;;;;;;;;;5137205;27;27725;-88
2022/05/08 08:15:54;;;;;;;;;;;;;;;;;;5153756;27;27830;-88
2022/05/08 08:18:19;;;;;;;;;;;;;;;;;;5137411;27;28416;-88
2022/05/08 08:20:44;;;;;;;;;;;;;;;;;;5137363;27;28499;-87
2022/05/08 08:23:09;;;;;;;;;;;;;;;;;;5137330;27;28450;-88
2022/05/08 08:25:35;;;;;;;;;;;;;;;;;;5137214;27;28573;-87
2022/05/08 08:28:01;;;;;;;;;;;;;;;;;;5153201;27;29898;-87
2022/05/08 08:30:26;;;;;;;;;;;;;;;;;;5137111;27;28350;-88
2022/05/08 08:32:51;;;;;;;;;;;;;;;;;;5140544;27;28407;-87
2022/05/08 08:35:16;;;;;;;;;;;;;;;;;;5140986;27;28400;-87
2022/05/08 08:37:41;;;;;;;;;;;;;;;;;;5140163;27;29583;-87
2022/05/08 08:40:07;;;;;;;;;;;;;;;;;;5140413;27;28415;-87
2022/05/08 08:42:32;;;;;;;;;;;;;;;;;;5156742;27;28397;-87
2022/05/08 08:47:43;;;;;;;;;;;;;;;;;;5140143;27;28342;-87
2022/05/08 08:50:09;;;;;;;;;;;;;;;;;;5140900;27;28283;-87
2022/05/08 08:52:34;;;;;;;;;;;;;;;;;;5156238;27;28231;-87
2022/05/08 08:54:59;;;;;;;;;;;;;;;;;;5140859;27;28225;-87
2022/05/08 08:57:24;;;;;;;;;;;;;;;;;;5140916;27;28296;-87
2022/05/08 08:59:49;;;;;;;;;;;;;;;;;;5139978;27;28428;-88
2022/05/08 09:02:14;;;;;;;;;;;;;;;;;;5156237;27;28338;-88
2022/05/08 09:04:39;;;;;;;;;;;;;;;;;;5140642;27;28806;-89
2022/05/08 09:07:04;;;;;;;;;;;;;;;;;;5156619;27;29693;-88
2022/05/08 09:09:33;;;;;;;;;;;;;;;;;;5140226;27;28305;-87
2022/05/08 09:11:58;;;;;;;;;;;;;;;;;;5140348;27;28432;-88
2022/05/08 09:14:23;;;;;;;;;;;;;;;;;;5140477;27;28571;-92
2022/05/08 09:16:48;;;;;;;;;;;;;;;;;;5155266;27;29861;-86
2022/05/08 09:19:13;;;;;;;;;;;;;;;;;;5139385;27;28297;-82
2022/05/08 09:21:58;;;;;;;;;;;;;;;;;;5139058;27;28418;-83
2022/05/08 09:24:23;;;;;;;;;;;;;;;;;;5138901;27;28486;-82
2022/05/08 09:26:50;;;;;;;;;;;;;;;;;;5137840;27;29751;-82
2022/05/08 09:29:15;;;;;;;;;;;;;;;;;;5155074;27;28514;-82
2022/05/08 09:31:43;;;;;;;;;;;;;;;;;;5138885;27;28450;-82
2022/05/08 09:34:08;;;;;;;;;;;;;;;;;;5139344;27;28376;-85
2022/05/08 09:36:33;;;;;;;;;;;;;;;;;;5138898;27;28336;-85
2022/05/08 09:38:58;;;;;;;;;;;;;;;;;;5138769;27;28444;-85
2022/05/08 09:41:23;;;;;;;;;;;;;;;;;;5154983;27;28346;-85
2022/05/08 09:43:49;;;;;;;;;;;;;;;;;;5154611;27;28413;-84
2022/05/08 09:46:14;;;;;;;;;;;;;;;;;;5150843;27;29323;-84
2022/05/08 09:48:39;;;;;;;;;;;;;;;;;;5158532;27;28328;-83
2022/05/08 09:51:04;;;;;;;;;;;;;;;;;;5160094;27;28269;-83
2022/05/08 09:53:29;;;;;;;;;;;;;;;;;;5160031;27;28450;-87
2022/05/08 09:55:54;;;;;;;;;;;;;;;;;;5159480;27;29080;-88
2022/05/08 09:58:19;;;;;;;;;;;;;;;;;;5154183;27;28679;-82
2022/05/08 10:00:45;;;;;;;;;;;;;;;;;;5138627;27;28383;-82
2022/05/08 10:03:10;;;;;;;;;;;;;;;;;;5139660;27;28450;-82
2022/05/08 10:05:37;;;;;;;;;;;;;;;;;;5142092;27;28515;-84
2022/05/08 10:08:02;;;;;;;;;;;;;;;;;;5158467;27;28496;-83
2022/05/08 10:15:55;;;;;;;;;;;;;;;;;;5138212;27;28346;-83
2022/05/08 10:18:20;;;;;;;;;;;;;;;;;;5138168;27;28236;-84
2022/05/08 10:20:45;;;;;;;;;;;;;;;;;;5138616;27;28248;-83
2022/05/08 10:23:10;;;;;;;;;;;;;;;;;;5154240;27;28354;-88
2022/05/08 10:25:35;;;;;;;;;;;;;;;;;;5159342;27;28424;-83
2022/05/08 10:28:00;;;;;;;;;;;;;;;;;;5159257;27;28289;-87
2022/05/08 10:30:25;;;;;;;;;;;;;;;;;;5158873;27;28407;-85
2022/05/08 10:32:51;;;;;;;;;;;;;;;;;;5175411;27;28840;-86
2022/05/08 10:35:16;;;;;;;;;;;;;;;;;;5157883;27;28432;-84
2022/05/08 10:37:41;;;;;;;;;;;;;;;;;;5157919;27;28533;-85
2022/05/08 10:40:06;;;;;;;;;;;;;;;;;;5157750;27;28610;-85
2022/05/08 10:42:38;;;;;;;;;;;;;;;;;;5145232;27;28540;-85
2022/05/08 10:45:04;;;;;;;;;;;;;;;;;;5158141;27;29493;-86
2022/05/08 10:47:30;;;;;;;;;;;;;;;;;;5157462;27;28476;-84
2022/05/08 10:49:55;;;;;;;;;;;;;;;;;;5158244;27;28440;-82
2022/05/08 10:52:20;;;;;;;;;;;;;;;;;;5158884;27;28293;-88
2022/05/08 10:54:45;;;;;;;;;;;;;;;;;;5157245;27;28640;-82
2022/05/08 10:57:10;;;;;;;;;;;;;;;;;;5153662;27;28342;-88
2022/05/08 10:59:35;;;;;;;;;;;;;;;;;;5153197;27;28335;-84
2022/05/08 11:02:00;;;;;;;;;;;;;;;;;;5137922;27;28330;-84
2022/05/08 11:04:26;;;;;;;;;;;;;;;;;;5137342;27;29060;-84
2022/05/08 11:06:51;;;;;;;;;;;;;;;;;;5137686;27;28287;-84
2022/05/08 11:09:16;;;;;;;;;;;;;;;;;;5138540;27;28263;-86
2022/05/08 11:11:42;;;;;;;;;;;;;;;;;;5137867;27;28456;-84
2022/05/08 11:14:07;;;;;;;;;;;;;;;;;;5137365;27;28351;-85
2022/05/08 11:16:37;;;;;;;;;;;;;;;;;;5137278;27;28655;-83
2022/05/08 11:19:02;;;;;;;;;;;;;;;;;;5145379;27;28419;-85
2022/05/08 11:21:27;;;;;;;;;;;;;;;;;;5158096;27;28398;-85
2022/05/08 11:23:54;;;;;;;;;;;;;;;;;;5157751;27;28420;-85
2022/05/08 11:26:20;;;;;;;;;;;;;;;;;;5158349;27;28248;-86
2022/05/08 11:28:45;;;;;;;;;;;;;;;;;;5158264;27;28258;-86
2022/05/08 11:31:10;;;;;;;;;;;;;;;;;;5158027;27;28379;-87
2022/05/08 11:36:19;;;;;;;;;;;;;;;;;;5157827;27;28239;-87
2022/05/08 11:38:45;;;;;;;;;;;;;;;;;;5157649;27;28403;-86
2022/05/08 11:41:10;;;;;;;;;;;;;;;;;;5158079;27;28253;-87
2022/05/08 11:43:35;;;;;;;;;;;;;;;;;;5157407;27;29421;-87
2022/05/08 11:46:00;;;;;;;;;;;;;;;;;;5157729;27;28239;-86
2022/05/08 11:48:25;;;;;;;;;;;;;;;;;;5157702;27;28225;-87
2022/05/08 11:50:51;;;;;;;;;;;;;;;;;;5156219;27;28542;-87
2022/05/08 11:53:16;;;;;;;;;;;;;;;;;;5157639;27;28296;-85
2022/05/08 11:55:41;;;;;;;;;;;;;;;;;;5157428;27;28357;-86
2022/05/08 11:58:06;;;;;;;;;;;;;;;;;;5162986;27;28496;-87
2022/05/08 12:00:31;;;;;;;;;;;;;;;;;;5179761;27;28295;-85
2022/05/08 12:02:56;;;;;;;;;;;;;;;;;;5169410;27;28492;-84
2022/05/08 12:05:21;;;;;;;;;;;;;;;;;;5166938;27;28292;-85
2022/05/08 12:07:47;;;;;;;;;;;;;;;;;;5151103;27;28232;-87
2022/05/08 12:10:12;;;;;;;;;;;;;;;;;;5149497;27;28335;-79
2022/05/08 12:12:38;;;;;;;;;;;;;;;;;;5155482;27;29224;-79
2022/05/08 12:15:03;;;;;;;;;;;;;;;;;;5149755;27;28487;-87
2022/05/08 12:17:29;;;;;;;;;;;;;;;;;;5149802;27;27809;-85
2022/05/08 12:19:54;;;;;;;;;;;;;;;;;;5149217;27;28405;-87
2022/05/08 12:22:19;;;;;;;;;;;;;;;;;;5149868;27;28455;-83
2022/05/08 12:24:44;;;;;;;;;;;;;;;;;;5169545;27;28476;-83
2022/05/08 12:27:09;;;;;;;;;;;;;;;;;;5170151;27;28468;-85
2022/05/08 12:29:34;;;;;;;;;;;;;;;;;;5165724;27;28526;-80
2022/05/08 12:31:59;;;;;;;;;;;;;;;;;;5155861;27;28419;-87
2022/05/08 12:34:25;;;;;;;;;;;;;;;;;;5170752;27;28362;-86
2022/05/08 12:36:50;;;;;;;;;;;;;;;;;;5165711;27;28534;-88
2022/05/08 12:39:15;;;;;;;;;;;;;;;;;;5155208;27;28442;-85
2022/05/08 12:41:40;;;;;;;;;;;;;;;;;;5183474;27;28417;-87
2022/05/08 12:44:05;;;;;;;;;;;;;;;;;;5177241;27;28471;-87
2022/05/08 12:46:30;;;;;;;;;;;;;;;;;;5165866;27;28461;-89
2022/05/08 12:49:02;;;;;;;;;;;;;;;;;;5146465;27;28899;-86
2022/05/08 12:51:27;;;;;;;;;;;;;;;;;;5148979;27;28809;-89
2022/05/08 12:53:52;;;;;;;;;;;;;;;;;;5123877;27;28503;-86
2022/05/08 12:56:19;;;;;;;;;;;;;;;;;;5148473;27;28522;-86
2022/05/08 13:01:28;;;;;;;;;;;;;;;;;;5163181;27;28526;-86
2022/05/08 13:03:53;;;;;;;;;;;;;;;;;;5162716;27;29459;-86
2022/05/08 13:06:18;;;;;;;;;;;;;;;;;;5148118;27;28554;-87
2022/05/08 13:08:44;;;;;;;;;;;;;;;;;;5142392;27;28938;-87
2022/05/08 13:11:09;;;;;;;;;;;;;;;;;;5142187;27;29446;-87
2022/05/08 13:13:37;;;;;;;;;;;;;;;;;;5123704;27;28332;-87
2022/05/08 13:16:02;;;;;;;;;;;;;;;;;;5123359;27;28600;-87
2022/05/08 13:18:27;;;;;;;;;;;;;;;;;;5137978;27;28898;-87
2022/05/08 13:20:52;;;;;;;;;;;;;;;;;;5138265;27;28434;-87
2022/05/08 13:23:18;;;;;;;;;;;;;;;;;;5138354;27;28477;-86
2022/05/08 13:25:43;;;;;;;;;;;;;;;;;;5138492;27;28523;-87
2022/05/08 13:28:08;;;;;;;;;;;;;;;;;;5138574;27;28327;-87
2022/05/08 13:30:33;;;;;;;;;;;;;;;;;;5119777;27;28573;-87
2022/05/08 13:32:58;;;;;;;;;;;;;;;;;;5145768;27;28469;-87
2022/05/08 13:35:23;;;;;;;;;;;;;;;;;;5158969;27;29115;-88
2022/05/08 13:37:48;;;;;;;;;;;;;;;;;;5159510;27;28506;-91
2022/05/08 13:40:13;;;;;;;;;;;;;;;;;;5140370;27;30808;-88
2022/05/08 13:42:39;;;;;;;;;;;;;;;;;;5159118;27;28503;-89
2022/05/08 13:45:04;;;;;;;;;;;;;;;;;;5159100;27;28454;-88
2022/05/08 13:47:29;;;;;;;;;;;;;;;;;;5159247;27;28443;-87
2022/05/08 13:49:55;;;;;;;;;;;;;;;;;;5158830;27;28766;-88
2022/05/08 13:52:22;;;;;;;;;;;;;;;;;;5158772;27;28308;-87
2022/05/08 13:54:47;;;;;;;;;;;;;;;;;;5147416;27;28555;-86
2022/05/08 13:57:13;;;;;;;;;;;;;;;;;;5138361;27;28481;-88
2022/05/08 13:59:38;;;;;;;;;;;;;;;;;;5136125;27;28475;-88
2022/05/08 14:02:03;;;;;;;;;;;;;;;;;;5157841;27;28470;-88
2022/05/08 14:04:28;;;;;;;;;;;;;;;;;;5152950;27;28480;-88
2022/05/08 14:06:53;;;;;;;;;;;;;;;;;;5148285;27;28515;-88
2022/05/08 14:09:18;;;;;;;;;;;;;;;;;;5157858;27;28481;-87
2022/05/08 14:11:43;;;;;;;;;;;;;;;;;;5147007;27;28573;-87
2022/05/08 14:14:09;;;;;;;;;;;;;;;;;;5118893;27;28454;-86
2022/05/08 14:16:34;;;;;;;;;;;;;;;;;;5137912;27;28625;-86
2022/05/08 14:18:59;;;;;;;;;;;;;;;;;;5137828;27;29707;-86
2022/05/08 14:21:24;;;;;;;;;;;;;;;;;;5137495;27;28547;-87
2022/05/08 14:23:49;;;;;;;;;;;;;;;;;;5137614;27;28433;-87
2022/05/08 14:26:14;;;;;;;;;;;;;;;;;;5137915;27;28487;-87
2022/05/08 14:28:39;;;;;;;;;;;;;;;;;;5136141;27;28757;-88
2022/05/08 14:36:32;;;;;;;;;;;;;;;;;;5137777;27;28543;-86
2022/05/08 14:38:57;;;;;;;;;;;;;;;;;;5137340;27;28776;-86
2022/05/08 14:41:22;;;;;;;;;;;;;;;;;;5137336;27;28312;-86
2022/05/08 14:43:47;;;;;;;;;;;;;;;;;;5132956;27;28538;-85
2022/05/08 14:46:12;;;;;;;;;;;;;;;;;;5158352;27;28544;-85
2022/05/08 14:48:38;;;;;;;;;;;;;;;;;;5158100;27;29462;-90
2022/05/08 14:51:03;;;;;;;;;;;;;;;;;;5154940;27;28487;-92
2022/05/08 14:53:28;;;;;;;;;;;;;;;;;;5119830;27;28477;-85
2022/05/08 14:55:53;;;;;;;;;;;;;;;;;;5137165;27;28610;-85
2022/05/08 14:58:18;;;;;;;;;;;;;;;;;;5144917;27;29093;-86
2022/05/08 15:00:43;;;;;;;;;;;;;;;;;;5153357;27;28648;-87
2022/05/08 15:03:09;;;;;;;;;;;;;;;;;;5137157;27;28448;-89
2022/05/08 15:05:35;;;;;;;;;;;;;;;;;;5137311;27;28361;-87
2022/05/08 15:08:00;;;;;;;;;;;;;;;;;;5137056;27;29131;-88
2022/05/08 15:10:25;;;;;;;;;;;;;;;;;;5137144;27;28347;-87
2022/05/08 15:12:50;;;;;;;;;;;;;;;;;;5137237;27;28553;-87
2022/05/08 15:15:15;;;;;;;;;;;;;;;;;;5137099;27;28338;-90
2022/05/08 15:18:47;;;;;;;;;;;;;;;;;;5137061;27;29362;-85
2022/05/08 15:20:26;;;;;;;;;;;;;;;;;;5138758;27;28535;-83
2022/05/08 15:22:51;;;;;;;;;;;;;;;;;;5137075;27;28613;-81
2022/05/08 15:25:16;;;;;;;;;;;;;;;;;;5137144;27;28370;-81
2022/05/08 15:27:42;;;;;;;;;;;;;;;;;;5137294;27;28462;-82
2022/05/08 15:30:07;;;;;;;;;;;;;;;;;;5136545;27;28472;-85
2022/05/08 15:32:32;;;;;;;;;;;;;;;;;;5136514;27;28459;-88
2022/05/08 15:34:57;;;;;;;;;;;;;;;;;;5137668;27;28468;-85
2022/05/08 15:37:22;;;;;;;;;;;;;;;;;;5052714;28;30812;-83
2022/05/08 15:39:47;;;;;;;;;;;;;;;;;;5059344;28;28312;-83
2022/05/08 15:42:12;;;;;;;;;;;;;;;;;;5054158;28;28513;-83
2022/05/08 15:44:38;;;;;;;;;;;;;;;;;;5054558;28;28439;-89
2022/05/08 15:47:04;;;;;;;;;;;;;;;;;;5054613;28;28426;-84
2022/05/08 15:49:29;;;;;;;;;;;;;;;;;;5054308;28;28360;-83
2022/05/08 15:51:54;;;;;;;;;;;;;;;;;;5054165;28;28392;-85
2022/05/08 15:54:19;;;;;;;;;;;;;;;;;;5054634;28;28415;-85
2022/05/08 15:56:44;;;;;;;;;;;;;;;;;;5054595;28;28309;-86
2022/05/08 15:59:09;;;;;;;;;;;;;;;;;;5068028;28;28246;-86
2022/05/08 16:01:35;;;;;;;;;;;;;;;;;;5074313;28;28446;-85
2022/05/08 16:04:00;;;;;;;;;;;;;;;;;;5056292;28;28754;-85
2022/05/08 16:06:25;;;;;;;;;;;;;;;;;;5074195;28;29439;-86
2022/05/08 16:08:50;;;;;;;;;;;;;;;;;;5074642;28;28375;-83
2022/05/08 16:11:15;;;;;;;;;;;;;;;;;;5074314;28;28529;-85
2022/05/08 16:24:38;;;;;;;;;;;;;;;;;;5074499;28;28383;-85
2022/05/08 16:27:03;;;;;;;;;;;;;;;;;;5074434;28;28600;-86
2022/05/08 16:29:28;;;;;;;;;;;;;;;;;;5065404;28;28377;-85
2022/05/08 16:31:53;;;;;;;;;;;;;;;;;;5073864;28;28829;-85
2022/05/08 16:34:19;;;;;;;;;;;;;;;;;;5074334;28;28815;-85
2022/05/08 16:36:44;;;;;;;;;;;;;;;;;;5073884;28;29185;-87
2022/05/08 16:39:09;;;;;;;;;;;;;;;;;;5075164;28;28948;-84
2022/05/08 16:41:34;;;;;;;;;;;;;;;;;;5081935;28;28913;-83
2022/05/08 16:44:06;;;;;;;;;;;;;;;;;;5073859;28;28495;-84
2022/05/08 16:46:31;;;;;;;;;;;;;;;;;;5074082;28;28574;-83
2022/05/08 16:48:59;;;;;;;;;;;;;;;;;;5073823;28;28459;-84
2022/05/08 16:51:25;;;;;;;;;;;;;;;;;;5073868;28;28403;-84
2022/05/08 16:53:50;;;;;;;;;;;;;;;;;;5076519;28;28341;-83
2022/05/08 16:56:15;;;;;;;;;;;;;;;;;;5076638;28;28375;-82
2022/05/08 16:58:40;;;;;;;;;;;;;;;;;;5077168;28;28575;-82
2022/05/08 17:01:06;;;;;;;;;;;;;;;;;;5076982;28;28482;-84
2022/05/08 17:03:31;;;;;;;;;;;;;;;;;;5076366;28;28225;-84
2022/05/08 17:05:56;;;;;;;;;;;;;;;;;;5075981;28;28691;-82
2022/05/08 17:08:22;;;;;;;;;;;;;;;;;;5076880;28;28422;-83
2022/05/08 17:10:47;;;;;;;;;;;;;;;;;;5076834;28;28411;-83
2022/05/08 17:13:12;;;;;;;;;;;;;;;;;;5077283;28;28379;-82
2022/05/08 17:15:41;;;;;;;;;;;;;;;;;;5076874;28;29433;-82